Back to Top

Language: 

My Weather Underground Personal Weather Station Historical Data with Graphs...

Delerius Weather Station Historical Data
Daily Summary for March 9, 2017 Units:  English    Metric   Both
« Previous Day
Next Day »
Daily Weekly Monthly Yearly Custom
  High: Low: Average:
Temperature: 56.3 °F 40.2 °F 48.7 °F
Dew Point: 44.9 °F 36.9 °F 40.5 °F
Humidity: 90 % 51 % 75 %
Wind Speed: 24.0 mph 0.0 mph 9.3 mph
Wind Gust: 32.0 mph - -
Wind:- - West
Pressure: 30.30 in 29.86 in -
Precipitation: 0.00 in    
Historical Graphs
 
 
Tabular Data for March 9, 2017
Time Temperature Dew Point Pressure Wind Wind Speed Wind Gust Humidity Rainfall Rate (Hourly) solar Conditions
00:05 47.1 °F 41.2 °F 29.92 in WSW 9.0 mph 22.0 mph 80 % 0.00 in 0 W/m2
00:15 47.0 °F 41.1 °F 29.92 in WSW 9.0 mph 10.0 mph 80 % 0.00 in 0 W/m2
00:20 46.9 °F 41.1 °F 29.92 in WSW 8.0 mph 9.0 mph 80 % 0.00 in 0 W/m2
00:25 46.8 °F 41.3 °F 29.92 in WSW 8.0 mph 9.0 mph 81 % 0.00 in 0 W/m2
00:30 46.8 °F 41.3 °F 29.92 in WSW 8.0 mph 8.0 mph 81 % 0.00 in 0 W/m2
00:40 46.7 °F 41.2 °F 29.91 in WSW 6.0 mph 6.0 mph 81 % 0.00 in 0 W/m2
00:45 46.6 °F 41.4 °F 29.91 in SW 6.0 mph 6.0 mph 82 % 0.00 in 0 W/m2
00:50 46.5 °F 41.3 °F 29.91 in WSW 5.0 mph 5.0 mph 82 % 0.00 in 0 W/m2
00:55 46.4 °F 41.2 °F 29.91 in SW 6.0 mph 6.0 mph 82 % 0.00 in 0 W/m2
01:00 46.2 °F 41.3 °F 29.91 in SW 6.0 mph 8.0 mph 83 % 0.00 in 0 W/m2
01:10 46.2 °F 41.3 °F 29.91 in SW 6.0 mph 16.0 mph 83 % 0.00 in 0 W/m2
01:15 46.1 °F 41.2 °F 29.90 in SW 6.0 mph 16.0 mph 83 % 0.00 in 0 W/m2
01:20 45.9 °F 41.0 °F 29.90 in SW 6.0 mph 6.0 mph 83 % 0.00 in 0 W/m2
01:25 45.8 °F 41.2 °F 29.90 in SW 6.0 mph 16.0 mph 84 % 0.00 in 0 W/m2
01:30 45.8 °F 41.5 °F 29.90 in SSW 6.0 mph 6.0 mph 85 % 0.00 in 0 W/m2
01:35 45.8 °F 41.5 °F 29.89 in SSW 5.0 mph 16.0 mph 85 % 0.00 in 0 W/m2
01:45 45.8 °F 41.5 °F 29.90 in SSW 2.0 mph 16.0 mph 85 % 0.00 in 0 W/m2
01:55 45.5 °F 41.3 °F 29.89 in Calm   16.0 mph 85 % 0.00 in 0 W/m2
02:00 45.5 °F 41.6 °F 29.89 in Calm   16.0 mph 86 % 0.00 in 0 W/m2
02:05 45.4 °F 41.5 °F 29.88 in SSE 1.0 mph 16.0 mph 86 % 0.00 in 0 W/m2
02:10 45.1 °F 41.2 °F 29.89 in SSE 1.0 mph 16.0 mph 86 % 0.00 in 0 W/m2
02:20 44.8 °F 41.2 °F 29.88 in ESE 3.0 mph 16.0 mph 87 % 0.00 in 0 W/m2
02:25 44.6 °F 41.0 °F 29.88 in East 3.0 mph 16.0 mph 87 % 0.00 in 0 W/m2
02:30 44.4 °F 40.8 °F 29.88 in East 2.0 mph 16.0 mph 87 % 0.00 in 0 W/m2
02:35 44.1 °F 40.5 °F 29.88 in ESE 1.0 mph 16.0 mph 87 % 0.00 in 0 W/m2
02:40 43.9 °F 40.6 °F 29.88 in Calm   16.0 mph 88 % 0.00 in 0 W/m2
02:50 43.5 °F 40.2 °F 29.88 in WSW 1.0 mph 16.0 mph 88 % 0.00 in 0 W/m2
02:55 43.7 °F 40.7 °F 29.88 in WSW 3.0 mph 16.0 mph 89 % 0.00 in 0 W/m2
03:00 44.3 °F 41.6 °F 29.88 in West 6.0 mph 16.0 mph 90 % 0.00 in 0 W/m2
03:05 45.1 °F 42.1 °F 29.88 in West 7.0 mph 16.0 mph 89 % 0.00 in 0 W/m2
03:15 45.9 °F 42.5 °F 29.88 in WSW 6.0 mph 16.0 mph 88 % 0.00 in 0 W/m2
03:20 46.1 °F 42.1 °F 29.87 in WSW 5.0 mph 5.0 mph 86 % 0.00 in 0 W/m2
03:30 46.1 °F 42.1 °F 29.87 in West 6.0 mph 16.0 mph 86 % 0.00 in 0 W/m2
03:35 46.0 °F 42.0 °F 29.87 in West 5.0 mph 16.0 mph 86 % 0.00 in 0 W/m2
03:40 45.9 °F 41.9 °F 29.87 in NNW 3.0 mph 16.0 mph 86 % 0.00 in 0 W/m2
03:45 45.7 °F 42.1 °F 29.87 in West 3.0 mph 16.0 mph 87 % 0.00 in 0 W/m2
03:50 45.5 °F 41.9 °F 29.87 in West 3.0 mph 3.0 mph 87 % 0.00 in 0 W/m2
04:00 45.1 °F 41.8 °F 29.87 in West 2.0 mph 16.0 mph 88 % 0.00 in 0 W/m2
04:05 45.4 °F 42.3 °F 29.87 in West 5.0 mph 16.0 mph 89 % 0.00 in 0 W/m2
04:10 45.7 °F 42.9 °F 29.87 in West 6.0 mph 6.0 mph 90 % 0.00 in 0 W/m2
04:15 45.9 °F 42.8 °F 29.87 in WSW 5.0 mph 16.0 mph 89 % 0.00 in 0 W/m2
04:20 46.2 °F 43.1 °F 29.87 in WNW 6.0 mph 16.0 mph 89 % 0.00 in 0 W/m2
04:30 46.7 °F 43.6 °F 29.87 in West 8.0 mph 8.0 mph 89 % 0.00 in 0 W/m2
04:35 46.8 °F 43.7 °F 29.86 in West 9.0 mph 20.0 mph 89 % 0.00 in 0 W/m2
04:40 47.0 °F 43.9 °F 29.86 in West 11.0 mph 16.0 mph 89 % 0.00 in 0 W/m2
04:50 47.3 °F 44.2 °F 29.86 in West 13.0 mph 23.0 mph 89 % 0.00 in 0 W/m2
04:55 47.3 °F 44.2 °F 29.86 in WNW 14.0 mph 23.0 mph 89 % 0.00 in 0 W/m2
05:05 47.5 °F 44.4 °F 29.87 in WNW 15.0 mph 25.0 mph 89 % 0.00 in 0 W/m2
05:10 47.6 °F 44.5 °F 29.87 in West 17.0 mph 17.0 mph 89 % 0.00 in 0 W/m2
05:15 47.6 °F 44.5 °F 29.88 in WNW 17.0 mph 17.0 mph 89 % 0.00 in 0 W/m2
05:20 47.6 °F 44.5 °F 29.88 in West 16.0 mph 19.0 mph 89 % 0.00 in 0 W/m2
05:25 47.6 °F 44.8 °F 29.89 in West 15.0 mph 25.0 mph 90 % 0.00 in 0 W/m2
05:30 47.6 °F 44.8 °F 29.89 in WNW 16.0 mph 18.0 mph 90 % 0.00 in 0 W/m2
05:40 47.6 °F 44.5 °F 29.89 in West 15.0 mph 25.0 mph 89 % 0.00 in 0 W/m2
05:45 47.6 °F 44.5 °F 29.89 in West 15.0 mph 25.0 mph 89 % 0.00 in 0 W/m2
05:50 47.5 °F 44.4 °F 29.90 in WNW 14.0 mph 16.0 mph 89 % 0.00 in 0 W/m2
05:55 47.5 °F 44.7 °F 29.90 in WNW 14.0 mph 16.0 mph 90 % 0.00 in 0 W/m2
06:00 47.4 °F 44.3 °F 29.90 in West 13.0 mph 18.0 mph 89 % 0.00 in 0 W/m2
06:10 47.6 °F 44.5 °F 29.91 in West 14.0 mph 18.0 mph 89 % 0.00 in 0 W/m2
06:15 47.7 °F 44.6 °F 29.91 in WNW 14.0 mph 18.0 mph 89 % 0.00 in 0 W/m2
06:25 47.7 °F 44.6 °F 29.92 in West 13.0 mph 16.0 mph 89 % 0.00 in 0 W/m2
06:30 47.7 °F 44.6 °F 29.92 in WNW 12.0 mph 18.0 mph 89 % 0.00 in 0 W/m2
06:35 47.8 °F 44.7 °F 29.93 in West 13.0 mph 18.0 mph 89 % 0.00 in 5 W/m2
06:40 47.9 °F 44.8 °F 29.93 in West 16.0 mph 21.0 mph 89 % 0.00 in 12 W/m2
06:45 48.0 °F 44.9 °F 29.93 in West 16.0 mph 21.0 mph 89 % 0.00 in 23 W/m2
06:50 48.1 °F 44.7 °F 29.93 in West 15.0 mph 15.0 mph 88 % 0.00 in 9 W/m2
06:55 48.2 °F 44.8 °F 29.93 in WNW 14.0 mph 19.0 mph 88 % 0.00 in 16 W/m2
07:00 48.2 °F 44.2 °F 29.93 in WNW 17.0 mph 18.0 mph 86 % 0.00 in 18 W/m2
07:05 48.2 °F 44.2 °F 29.94 in WNW 18.0 mph 18.0 mph 86 % 0.00 in 26 W/m2
07:10 48.2 °F 43.9 °F 29.94 in WNW 18.0 mph 21.0 mph 85 % 0.00 in 56 W/m2
07:20 48.4 °F 44.1 °F 29.95 in West 16.0 mph 19.0 mph 85 % 0.00 in 88 W/m2
07:25 48.5 °F 43.9 °F 29.95 in WNW 16.0 mph 25.0 mph 84 % 0.00 in 102 W/m2
07:30 48.6 °F 44.0 °F 29.95 in NW 15.0 mph 16.0 mph 84 % 0.00 in 113 W/m2
07:35 48.6 °F 44.0 °F 29.95 in WSW 16.0 mph 16.0 mph 84 % 0.00 in 121 W/m2
07:40 48.8 °F 43.9 °F 29.96 in WNW 16.0 mph 16.0 mph 83 % 0.00 in 137 W/m2
07:50 49.1 °F 44.2 °F 29.97 in WNW 17.0 mph 17.0 mph 83 % 0.00 in 214 W/m2
08:00 48.9 °F 42.7 °F 29.97 in West 18.0 mph 25.0 mph 79 % 0.00 in 141 W/m2
08:05 48.8 °F 42.2 °F 29.97 in NNW 19.0 mph 25.0 mph 78 % 0.00 in 206 W/m2
08:10 48.9 °F 42.3 °F 29.97 in West 18.0 mph 18.0 mph 78 % 0.00 in 216 W/m2
08:15 49.0 °F 42.4 °F 29.97 in West 17.0 mph 18.0 mph 78 % 0.00 in 230 W/m2
08:25 49.3 °F 42.4 °F 29.98 in WNW 17.0 mph 18.0 mph 77 % 0.00 in 257 W/m2
08:30 49.3 °F 42.1 °F 29.98 in WNW 16.0 mph 16.0 mph 76 % 0.00 in 267 W/m2
08:35 49.5 °F 41.9 °F 29.98 in WNW 18.0 mph 24.0 mph 75 % 0.00 in 281 W/m2
08:40 49.5 °F 41.2 °F 29.98 in West 19.0 mph 20.0 mph 73 % 0.00 in 297 W/m2
08:45 49.6 °F 41.3 °F 29.98 in West 20.0 mph 20.0 mph 73 % 0.00 in 309 W/m2
08:50 49.7 °F 41.0 °F 29.98 in West 21.0 mph 21.0 mph 72 % 0.00 in 325 W/m2
09:00 50.0 °F 41.7 °F 29.98 in West 21.0 mph 21.0 mph 73 % 0.00 in 348 W/m2
09:05 50.1 °F 41.8 °F 29.98 in West 21.0 mph 21.0 mph 73 % 0.00 in 355 W/m2
09:10 50.2 °F 41.9 °F 29.98 in West 21.0 mph 21.0 mph 73 % 0.00 in 369 W/m2
09:20 50.4 °F 41.7 °F 29.99 in WSW 23.0 mph 32.0 mph 72 % 0.00 in 406 W/m2
09:25 50.4 °F 41.7 °F 29.99 in WNW 23.0 mph 32.0 mph 72 % 0.00 in 415 W/m2
09:35 50.6 °F 41.2 °F 29.99 in West 22.0 mph 22.0 mph 70 % 0.00 in 427 W/m2
09:40 50.6 °F 41.2 °F 30.00 in NW 23.0 mph 28.0 mph 70 % 0.00 in 438 W/m2
09:45 50.7 °F 40.9 °F 30.00 in WNW 23.0 mph 28.0 mph 69 % 0.00 in 441 W/m2
09:50 50.9 °F 41.1 °F 30.00 in West 22.0 mph 23.0 mph 69 % 0.00 in 459 W/m2
09:55 51.0 °F 41.2 °F 30.00 in West 22.0 mph 29.0 mph 69 % 0.00 in 466 W/m2
10:05 51.0 °F 41.2 °F 30.00 in West 24.0 mph 27.0 mph 69 % 0.00 in 489 W/m2
10:10 51.0 °F 41.2 °F 30.01 in WSW 24.0 mph 29.0 mph 69 % 0.00 in 494 W/m2
10:15 51.1 °F 41.3 °F 30.01 in WNW 23.0 mph 29.0 mph 69 % 0.00 in 494 W/m2
10:20 51.2 °F 41.4 °F 30.01 in WNW 23.0 mph 23.0 mph 69 % 0.00 in 512 W/m2
10:25 51.4 °F 41.6 °F 30.01 in NW 23.0 mph 23.0 mph 69 % 0.00 in 513 W/m2
10:35 51.7 °F 41.5 °F 30.02 in WNW 21.0 mph 22.0 mph 68 % 0.00 in 494 W/m2
10:40 51.6 °F 41.4 °F 30.02 in WNW 22.0 mph 22.0 mph 68 % 0.00 in 513 W/m2
10:50 51.5 °F 41.3 °F 30.03 in NW 19.0 mph 19.0 mph 68 % 0.00 in 512 W/m2
10:55 51.7 °F 41.1 °F 30.04 in West 18.0 mph 19.0 mph 67 % 0.00 in 555 W/m2
11:00 52.1 °F 41.5 °F 30.05 in WNW 18.0 mph 18.0 mph 67 % 0.00 in 564 W/m2
11:05 52.1 °F 41.1 °F 30.05 in WNW 19.0 mph 20.0 mph 66 % 0.00 in 566 W/m2
11:15 52.2 °F 40.8 °F 30.06 in WNW 21.0 mph 25.0 mph 65 % 0.00 in 573 W/m2
11:20 52.3 °F 41.3 °F 30.06 in WNW 21.0 mph 21.0 mph 66 % 0.00 in 570 W/m2
11:25 52.4 °F 41.0 °F 30.06 in WNW 21.0 mph 21.0 mph 65 % 0.00 in 596 W/m2
11:30 52.6 °F 41.6 °F 30.07 in NW 22.0 mph 22.0 mph 66 % 0.00 in 582 W/m2
11:35 53.0 °F 41.9 °F 30.08 in West 19.0 mph 22.0 mph 66 % 0.00 in 613 W/m2
11:45 53.2 °F 41.7 °F 30.08 in WSW 20.0 mph 20.0 mph 65 % 0.00 in 594 W/m2
11:50 53.3 °F 41.4 °F 30.09 in WNW 18.0 mph 20.0 mph 64 % 0.00 in 613 W/m2
11:55 53.6 °F 42.1 °F 30.09 in WSW 15.0 mph 20.0 mph 65 % 0.00 in 612 W/m2
12:00 53.8 °F 41.9 °F 30.09 in WNW 15.0 mph 15.0 mph 64 % 0.00 in 540 W/m2
12:10 53.9 °F 41.2 °F 30.09 in WNW 18.0 mph 18.0 mph 62 % 0.00 in 550 W/m2
12:15 54.1 °F 42.2 °F 30.10 in West 17.0 mph 19.0 mph 64 % 0.00 in 552 W/m2
12:25 54.1 °F 41.4 °F 30.10 in West 17.0 mph 17.0 mph 62 % 0.00 in 599 W/m2
12:30 54.3 °F 41.6 °F 30.10 in WNW 16.0 mph 16.0 mph 62 % 0.00 in 591 W/m2
12:35 54.4 °F 41.6 °F 30.10 in NW 15.0 mph 16.0 mph 62 % 0.00 in 596 W/m2
12:40 54.6 °F 41.8 °F 30.10 in WNW 15.0 mph 21.0 mph 62 % 0.00 in 594 W/m2
12:45 54.8 °F 41.6 °F 30.11 in WNW 14.0 mph 21.0 mph 61 % 0.00 in 591 W/m2
12:50 55.0 °F 41.4 °F 30.10 in West 13.0 mph 16.0 mph 60 % 0.00 in 587 W/m2
12:55 54.9 °F 39.9 °F 30.10 in NW 14.0 mph 16.0 mph 57 % 0.00 in 589 W/m2
13:00 54.9 °F 39.9 °F 30.10 in NW 15.0 mph 15.0 mph 57 % 0.00 in 585 W/m2
13:05 55.1 °F 39.7 °F 30.11 in WNW 14.0 mph 16.0 mph 56 % 0.00 in 582 W/m2
13:10 55.2 °F 39.8 °F 30.12 in NW 13.0 mph 13.0 mph 56 % 0.00 in 577 W/m2
13:15 55.4 °F 40.0 °F 30.12 in WNW 13.0 mph 16.0 mph 56 % 0.00 in 568 W/m2
13:25 55.9 °F 40.0 °F 30.12 in WNW 9.0 mph 18.0 mph 55 % 0.00 in 561 W/m2
13:35 56.1 °F 39.7 °F 30.12 in WNW 13.0 mph 16.0 mph 54 % 0.00 in 550 W/m2
13:40 55.7 °F 38.8 °F 30.12 in WNW 14.0 mph 16.0 mph 53 % 0.00 in 548 W/m2
13:45 55.8 °F 38.4 °F 30.12 in WNW 14.0 mph 16.0 mph 52 % 0.00 in 541 W/m2
13:50 55.7 °F 39.3 °F 30.13 in NNW 12.0 mph 12.0 mph 54 % 0.00 in 533 W/m2
14:00 55.9 °F 39.0 °F 30.14 in WNW 9.0 mph 9.0 mph 53 % 0.00 in 517 W/m2
14:05 56.1 °F 39.2 °F 30.14 in NW 9.0 mph 16.0 mph 53 % 0.00 in 506 W/m2
14:10 56.2 °F 38.8 °F 30.14 in WNW 10.0 mph 10.0 mph 52 % 0.00 in 499 W/m2
14:15 56.2 °F 38.8 °F 30.14 in WNW 10.0 mph 16.0 mph 52 % 0.00 in 490 W/m2
14:20 56.3 °F 38.4 °F 30.14 in WNW 10.0 mph 16.0 mph 51 % 0.00 in 482 W/m2
14:25 56.1 °F 38.2 °F 30.14 in WNW 11.0 mph 16.0 mph 51 % 0.00 in 473 W/m2
14:30 56.1 °F 38.7 °F 30.14 in WNW 11.0 mph 11.0 mph 52 % 0.00 in 466 W/m2
14:40 56.0 °F 38.1 °F 30.15 in NW 10.0 mph 16.0 mph 51 % 0.00 in 448 W/m2
14:45 56.1 °F 38.2 °F 30.15 in NW 9.0 mph 16.0 mph 51 % 0.00 in 438 W/m2
14:50 56.1 °F 38.2 °F 30.15 in WNW 10.0 mph 16.0 mph 51 % 0.00 in 432 W/m2
14:55 56.1 °F 38.7 °F 30.15 in West 11.0 mph 16.0 mph 52 % 0.00 in 427 W/m2
15:00 56.0 °F 38.1 °F 30.15 in NW 10.0 mph 10.0 mph 51 % 0.00 in 176 W/m2
15:10 55.4 °F 37.6 °F 30.16 in WNW 9.0 mph 16.0 mph 51 % 0.00 in 381 W/m2
15:15 55.7 °F 38.3 °F 30.15 in WNW 7.0 mph 16.0 mph 52 % 0.00 in 373 W/m2
15:20 55.9 °F 38.0 °F 30.16 in WNW 8.0 mph 16.0 mph 51 % 0.00 in 364 W/m2
15:25 56.0 °F 38.1 °F 30.17 in WNW 9.0 mph 16.0 mph 51 % 0.00 in 343 W/m2
15:30 56.0 °F 38.1 °F 30.17 in West 8.0 mph 8.0 mph 51 % 0.00 in 339 W/m2
15:40 56.0 °F 38.1 °F 30.17 in West 8.0 mph 16.0 mph 51 % 0.00 in 309 W/m2
15:45 55.9 °F 38.0 °F 30.17 in West 8.0 mph 16.0 mph 51 % 0.00 in 295 W/m2
15:55 55.5 °F 38.6 °F 30.17 in West 11.0 mph 16.0 mph 53 % 0.00 in 271 W/m2
16:00 55.2 °F 38.8 °F 30.17 in WNW 10.0 mph 16.0 mph 54 % 0.00 in 258 W/m2
16:05 54.7 °F 38.4 °F 30.18 in West 9.0 mph 16.0 mph 54 % 0.00 in 246 W/m2
16:15 54.2 °F 38.8 °F 30.18 in West 8.0 mph 11.0 mph 56 % 0.00 in 220 W/m2
16:20 53.8 °F 38.5 °F 30.18 in West 9.0 mph 16.0 mph 56 % 0.00 in 207 W/m2
16:25 53.6 °F 38.3 °F 30.18 in WNW 9.0 mph 16.0 mph 56 % 0.00 in 195 W/m2
16:30 53.4 °F 38.5 °F 30.19 in WSW 8.0 mph 8.0 mph 57 % 0.00 in 176 W/m2
16:35 53.2 °F 38.4 °F 30.19 in West 8.0 mph 16.0 mph 57 % 0.00 in 167 W/m2
16:40 53.0 °F 38.6 °F 30.19 in WNW 9.0 mph 16.0 mph 58 % 0.00 in 155 W/m2
16:50 52.7 °F 38.3 °F 30.19 in WNW 9.0 mph 9.0 mph 58 % 0.00 in 114 W/m2
16:55 52.6 °F 38.2 °F 30.20 in West 7.0 mph 16.0 mph 58 % 0.00 in 81 W/m2
17:05 52.2 °F 38.7 °F 30.20 in WNW 9.0 mph 16.0 mph 60 % 0.00 in 30 W/m2
17:10 51.8 °F 38.3 °F 30.20 in West 9.0 mph 16.0 mph 60 % 0.00 in 26 W/m2
17:15 51.5 °F 38.5 °F 30.21 in West 8.0 mph 16.0 mph 61 % 0.00 in 16 W/m2
17:25 51.0 °F 38.4 °F 30.22 in WNW 7.0 mph 16.0 mph 62 % 0.00 in 14 W/m2
17:30 50.6 °F 38.5 °F 30.21 in WNW 7.0 mph 7.0 mph 63 % 0.00 in 11 W/m2
17:35 50.2 °F 38.1 °F 30.22 in WNW 5.0 mph 16.0 mph 63 % 0.00 in 11 W/m2
17:40 49.9 °F 38.2 °F 30.22 in WNW 5.0 mph 16.0 mph 64 % 0.00 in 9 W/m2
17:45 49.6 °F 38.3 °F 30.23 in WSW 5.0 mph 16.0 mph 65 % 0.00 in 7 W/m2
17:55 49.1 °F 38.2 °F 30.22 in West 2.0 mph 5.0 mph 66 % 0.00 in 0 W/m2
18:00 48.8 °F 38.3 °F 30.22 in WNW 3.0 mph 16.0 mph 67 % 0.00 in 0 W/m2
18:05 48.4 °F 38.3 °F 30.22 in WNW 4.0 mph 16.0 mph 68 % 0.00 in 0 W/m2
18:15 47.8 °F 38.1 °F 30.22 in WNW 3.0 mph 5.0 mph 69 % 0.00 in 0 W/m2
18:20 47.5 °F 38.2 °F 30.22 in WNW 3.0 mph 16.0 mph 70 % 0.00 in 0 W/m2
18:30 47.0 °F 38.1 °F 30.22 in WNW 4.0 mph 4.0 mph 71 % 0.00 in 0 W/m2
18:40 46.6 °F 38.1 °F 30.23 in West 4.0 mph 16.0 mph 72 % 0.00 in 0 W/m2
18:45 46.4 °F 37.9 °F 30.23 in West 3.0 mph 16.0 mph 72 % 0.00 in 0 W/m2
18:50 46.2 °F 38.0 °F 30.24 in West 2.0 mph 2.0 mph 73 % 0.00 in 0 W/m2
18:55 46.0 °F 37.8 °F 30.24 in West 2.0 mph 16.0 mph 73 % 0.00 in 0 W/m2
19:00 45.9 °F 37.7 °F 30.24 in West 2.0 mph 16.0 mph 73 % 0.00 in 0 W/m2
19:05 45.8 °F 38.0 °F 30.24 in West 1.0 mph 16.0 mph 74 % 0.00 in 0 W/m2
19:10 45.7 °F 37.9 °F 30.24 in West 1.0 mph 16.0 mph 74 % 0.00 in 0 W/m2
19:15 45.5 °F 38.0 °F 30.24 in WSW 1.0 mph 16.0 mph 75 % 0.00 in 0 W/m2
19:20 45.4 °F 37.9 °F 30.23 in West 2.0 mph 16.0 mph 75 % 0.00 in 0 W/m2
19:25 45.3 °F 37.8 °F 30.25 in West 1.0 mph 16.0 mph 75 % 0.00 in 0 W/m2
19:30 45.2 °F 37.7 °F 30.25 in West 1.0 mph 16.0 mph 75 % 0.00 in 0 W/m2
19:35 45.0 °F 37.6 °F 30.25 in West 2.0 mph 16.0 mph 75 % 0.00 in 0 W/m2
19:40 45.0 °F 37.9 °F 30.25 in WNW 3.0 mph 16.0 mph 76 % 0.00 in 0 W/m2
19:50 44.9 °F 38.1 °F 30.26 in WNW 1.0 mph 1.0 mph 77 % 0.00 in 0 W/m2
19:55 44.7 °F 37.9 °F 30.26 in Calm   16.0 mph 77 % 0.00 in 0 W/m2
20:00 44.6 °F 37.8 °F 30.26 in WNW 1.0 mph 16.0 mph 77 % 0.00 in 0 W/m2
20:10 44.4 °F 38.0 °F 30.26 in Calm   16.0 mph 78 % 0.00 in 0 W/m2
20:15 44.3 °F 38.2 °F 30.26 in Calm   16.0 mph 79 % 0.00 in 0 W/m2
20:20 44.2 °F 38.1 °F 30.26 in Calm   16.0 mph 79 % 0.00 in 0 W/m2
20:25 44.2 °F 38.1 °F 30.26 in Calm   16.0 mph 79 % 0.00 in 0 W/m2
20:30 44.1 °F 38.3 °F 30.26 in Calm   16.0 mph 80 % 0.00 in 0 W/m2
20:35 44.1 °F 38.0 °F 30.26 in Calm   16.0 mph 79 % 0.00 in 0 W/m2
20:45 44.0 °F 38.2 °F 30.26 in WNW 2.0 mph 16.0 mph 80 % 0.00 in 0 W/m2
20:50 44.1 °F 38.3 °F 30.27 in WNW 1.0 mph 1.0 mph 80 % 0.00 in 0 W/m2
20:55 44.0 °F 38.5 °F 30.27 in Calm   16.0 mph 81 % 0.00 in 0 W/m2
21:05 44.0 °F 38.5 °F 30.27 in Calm   16.0 mph 81 % 0.00 in 0 W/m2
21:10 43.8 °F 38.3 °F 30.28 in Calm   16.0 mph 81 % 0.00 in 0 W/m2
21:20 43.7 °F 38.6 °F 30.27 in Calm   16.0 mph 82 % 0.00 in 0 W/m2
21:25 43.5 °F 38.4 °F 30.28 in Calm   16.0 mph 82 % 0.00 in 0 W/m2
21:30 43.4 °F 38.6 °F 30.27 in WNW 1.0 mph 16.0 mph 83 % 0.00 in 0 W/m2
21:35 43.4 °F 38.6 °F 30.27 in WNW 1.0 mph 16.0 mph 83 % 0.00 in 0 W/m2
21:40 43.4 °F 38.6 °F 30.27 in WNW 1.0 mph 1.0 mph 83 % 0.00 in 0 W/m2
21:55 43.2 °F 38.4 °F 30.27 in Calm   16.0 mph 83 % 0.00 in 0 W/m2
22:00 43.1 °F 38.6 °F 30.27 in Calm   16.0 mph 84 % 0.00 in 0 W/m2
22:05 43.0 °F 38.5 °F 30.27 in Calm   16.0 mph 84 % 0.00 in 0 W/m2
22:10 42.9 °F 38.4 °F 30.27 in Calm   16.0 mph 84 % 0.00 in 0 W/m2
22:15 42.9 °F 38.4 °F 30.27 in Calm   16.0 mph 84 % 0.00 in 0 W/m2
22:25 42.7 °F 38.2 °F 30.27 in Calm   16.0 mph 84 % 0.00 in 0 W/m2
22:35 42.6 °F 38.4 °F 30.28 in Calm   16.0 mph 85 % 0.00 in 0 W/m2
22:40 42.4 °F 38.2 °F 30.28 in Calm   16.0 mph 85 % 0.00 in 0 W/m2
22:45 42.3 °F 38.4 °F 30.28 in Calm   16.0 mph 86 % 0.00 in 0 W/m2
22:50 42.1 °F 37.9 °F 30.28 in Calm   16.0 mph 85 % 0.00 in 0 W/m2
23:00 41.7 °F 37.8 °F 30.28 in Calm   16.0 mph 86 % 0.00 in 0 W/m2
23:05 41.5 °F 37.6 °F 30.29 in Calm   16.0 mph 86 % 0.00 in 0 W/m2
23:10 41.5 °F 37.9 °F 30.29 in Calm   16.0 mph 87 % 0.00 in 0 W/m2
23:15 41.4 °F 37.8 °F 30.29 in Calm   16.0 mph 87 % 0.00 in 0 W/m2
23:20 41.3 °F 37.7 °F 30.29 in Calm   16.0 mph 87 % 0.00 in 0 W/m2
23:30 40.9 °F 37.3 °F 30.29 in Calm   16.0 mph 87 % 0.00 in 0 W/m2
23:35 40.6 °F 37.0 °F 30.29 in Calm   16.0 mph 87 % 0.00 in 0 W/m2
23:40 40.5 °F 37.2 °F 30.30 in Calm   16.0 mph 88 % 0.00 in 0 W/m2
23:50 40.2 °F 36.9 °F 30.30 in Calm   16.0 mph 88 % 0.00 in 0 W/m2
23:55 40.2 °F 37.2 °F 30.30 in Calm   16.0 mph 89 % 0.00 in 0 W/m2
Delerius-Weather
Compliments of Weather Underground - 2 mb

Data updates at regular intervals.